New Market, Indiana
Current Conditions -  °F | °C
As of 4:35 AM on Monday 24 Nov 2014 (Local Time) from K4I7 Reporting Station
Light Rain Light Rain  
Wind Chill: 12°   Ceiling: 900
Heat Index: 12°   Visibility: 2mi
Dew Point: 11°   Wind: 12mph
Humidity: 94%   Direction: 180°S
Pressure: 29.19"   Gusts: 28mph
Location:  39.95°N, 86.92°W
Report Text: K4I7 240935Z AUTO 18010G24KT 2SM -RA BKN009 BKN014 OVC028 12/11 A2919 RMK AO2 P0016
Loading
Personal Weather Stations






























Interactive Weather Map New forecast layout! Learn more

10-Day Weather Forecast

Advertisements
Track Severe Weather on mobile